createdAt,value
2023-05-05T00:02:23.953Z,99.90
2023-05-05T00:04:59.668Z,99.90
2023-05-05T00:07:48.284Z,99.90
2023-05-05T00:10:38.784Z,99.90
2023-05-05T00:13:15.206Z,99.90
2023-05-05T00:15:59.823Z,99.90
2023-05-05T00:18:41.866Z,99.90
2023-05-05T00:21:21.657Z,99.90
2023-05-05T00:24:09.452Z,99.90
2023-05-05T00:26:48.962Z,99.90
2023-05-05T00:29:21.547Z,99.90
2023-05-05T00:31:58.319Z,99.90
2023-05-05T00:34:30.958Z,99.90
2023-05-05T00:37:03.826Z,99.90
2023-05-05T00:39:39.517Z,99.90
2023-05-05T00:42:14.165Z,99.90
2023-05-05T00:44:47.771Z,99.90
2023-05-05T00:47:19.876Z,99.90
2023-05-05T00:49:51.998Z,99.90
2023-05-05T00:52:24.510Z,99.90
2023-05-05T00:54:57.784Z,99.90
2023-05-05T00:57:47.345Z,99.90
2023-05-05T01:00:32.273Z,99.90
2023-05-05T01:03:05.545Z,99.90
2023-05-05T01:06:12.342Z,99.90
2023-05-05T01:08:55.600Z,99.90
2023-05-05T01:11:39.346Z,99.90
2023-05-05T01:14:25.278Z,99.90
2023-05-05T01:17:04.765Z,99.90
2023-05-05T01:20:00.945Z,99.90
2023-05-05T01:22:44.842Z,99.90
2023-05-05T01:25:37.710Z,99.90
2023-05-05T01:28:46.172Z,99.90
2023-05-05T01:31:42.900Z,99.90
2023-05-05T01:34:17.447Z,99.90
2023-05-05T01:36:57.225Z,99.90
2023-05-05T01:39:33.497Z,99.90
2023-05-05T01:42:15.401Z,99.90
2023-05-05T01:44:49.464Z,99.90
2023-05-05T01:47:25.514Z,99.90
2023-05-05T01:50:02.024Z,99.90
2023-05-05T01:52:37.745Z,99.90
2023-05-05T01:55:11.240Z,99.90
2023-05-05T01:57:47.548Z,99.90
2023-05-05T02:00:21.846Z,99.90
2023-05-05T02:02:57.646Z,99.90
2023-05-05T02:05:31.868Z,99.90
2023-05-05T02:08:05.930Z,99.90
2023-05-05T02:10:43.749Z,99.90
2023-05-05T02:13:19.887Z,99.90
2023-05-05T02:15:53.579Z,99.90
2023-05-05T02:18:28.605Z,99.90
2023-05-05T02:21:01.373Z,99.90
2023-05-05T02:23:33.860Z,99.90
2023-05-05T02:26:15.346Z,99.90
2023-05-05T02:28:53.137Z,99.90
2023-05-05T02:31:28.896Z,99.90
2023-05-05T02:34:04.761Z,99.90
2023-05-05T02:36:43.120Z,99.90
2023-05-05T02:39:26.105Z,99.90
2023-05-05T02:42:03.206Z,99.90
2023-05-05T02:44:38.344Z,99.90
2023-05-05T02:47:10.925Z,99.90
2023-05-05T02:49:44.044Z,99.90
2023-05-05T02:52:16.342Z,99.90
2023-05-05T02:54:49.999Z,99.90
2023-05-05T02:57:34.900Z,99.90
2023-05-05T03:00:15.295Z,99.90
2023-05-05T03:03:20.878Z,99.90
2023-05-05T03:06:14.222Z,99.90
2023-05-05T03:09:13.308Z,99.90
2023-05-05T03:12:02.414Z,99.90
2023-05-05T03:14:41.670Z,99.90
2023-05-05T03:17:18.901Z,99.90
2023-05-05T03:19:54.578Z,99.90
2023-05-05T03:22:27.971Z,99.90
2023-05-05T03:25:01.916Z,99.90
2023-05-05T03:27:34.084Z,99.90
2023-05-05T03:30:07.779Z,99.90
2023-05-05T03:32:44.131Z,99.90
2023-05-05T03:35:16.500Z,99.90
2023-05-05T03:37:48.801Z,99.90
2023-05-05T03:40:40.323Z,99.90
2023-05-05T03:43:16.648Z,99.90
2023-05-05T03:45:59.301Z,99.90
2023-05-05T03:48:32.657Z,99.90
2023-05-05T03:51:04.990Z,99.90
2023-05-05T03:53:39.666Z,99.90
2023-05-05T03:56:16.457Z,99.90
2023-05-05T03:58:48.705Z,99.90
2023-05-05T04:01:21.110Z,99.90
2023-05-05T04:03:56.519Z,99.90
2023-05-05T04:06:29.519Z,99.90
2023-05-05T04:09:07.282Z,99.90
2023-05-05T04:11:48.759Z,99.90
2023-05-05T04:14:25.842Z,99.90
2023-05-05T04:16:58.710Z,99.90
2023-05-05T04:19:33.914Z,99.90
2023-05-05T04:22:07.950Z,99.90
2023-05-05T04:24:41.029Z,99.90
2023-05-05T04:27:13.178Z,99.90
2023-05-05T04:29:46.073Z,99.90
2023-05-05T04:32:18.706Z,99.90
2023-05-05T04:34:51.093Z,99.90
2023-05-05T04:37:23.986Z,99.90
2023-05-05T04:39:56.715Z,99.90
2023-05-05T04:42:29.275Z,99.90
2023-05-05T04:45:02.102Z,99.90
2023-05-05T04:47:39.065Z,99.90
2023-05-05T04:50:11.710Z,99.90
2023-05-05T04:52:44.722Z,99.90
2023-05-05T04:55:17.273Z,99.90
2023-05-05T04:57:49.880Z,99.90
2023-05-05T05:00:22.202Z,99.90
2023-05-05T05:02:54.686Z,99.90
2023-05-05T05:05:27.031Z,99.90
2023-05-05T05:07:59.267Z,99.90
2023-05-05T05:10:35.810Z,99.90
2023-05-05T05:13:10.154Z,99.90
2023-05-05T05:15:45.134Z,99.90
2023-05-05T05:18:17.650Z,99.90
2023-05-05T05:20:52.916Z,99.90
2023-05-05T05:23:31.680Z,99.90
2023-05-05T05:26:22.296Z,99.90
2023-05-05T05:28:55.361Z,99.90
2023-05-05T05:31:27.950Z,99.90
2023-05-05T05:34:01.288Z,99.90
2023-05-05T05:36:36.531Z,99.90
2023-05-05T05:39:09.134Z,99.90
2023-05-05T05:41:41.346Z,99.90
2023-05-05T05:44:13.788Z,99.90
2023-05-05T05:46:47.033Z,99.90
2023-05-05T05:49:20.335Z,99.90
2023-05-05T05:51:56.481Z,99.90
2023-05-05T05:54:47.305Z,99.90
2023-05-05T05:57:41.206Z,99.90
2023-05-05T06:00:16.228Z,99.90
2023-05-05T06:02:58.038Z,99.90
2023-05-05T06:05:34.844Z,99.90
2023-05-05T06:08:13.651Z,99.90
2023-05-05T06:10:52.860Z,99.90
2023-05-05T06:13:28.193Z,99.90
2023-05-05T06:16:01.207Z,99.90
2023-05-05T06:18:34.192Z,99.90
2023-05-05T06:21:07.343Z,99.90
2023-05-05T06:23:41.607Z,99.90
2023-05-05T06:26:14.438Z,99.90
2023-05-05T06:28:46.899Z,99.90
2023-05-05T06:31:19.175Z,99.90
2023-05-05T06:33:51.525Z,99.90
2023-05-05T06:36:23.749Z,99.90
2023-05-05T06:38:58.708Z,99.10
2023-05-05T06:41:30.866Z,98.80
2023-05-05T06:44:03.308Z,97.10
2023-05-05T06:46:38.692Z,95.50
2023-05-05T06:49:11.008Z,95.20
2023-05-05T06:51:43.189Z,95.30
2023-05-05T06:54:15.398Z,92.30
2023-05-05T06:56:50.955Z,91.80
2023-05-05T06:59:34.789Z,91.70
2023-05-05T07:02:10.369Z,91.80
2023-05-05T07:04:44.676Z,91.50
2023-05-05T07:07:38.641Z,91.60
2023-05-05T07:10:58.387Z,91.20
2023-05-05T07:14:34.868Z,90.60
2023-05-05T07:20:22.804Z,89.60
2023-05-05T07:22:54.873Z,90.60
2023-05-05T07:25:27.318Z,90.10
2023-05-05T07:27:59.794Z,90.90
2023-05-05T07:30:32.126Z,90.70
2023-05-05T07:33:04.579Z,91.60
2023-05-05T07:35:36.770Z,91.00
2023-05-05T07:38:10.772Z,90.10
2023-05-05T07:40:43.187Z,90.40
2023-05-05T07:43:15.624Z,89.40
2023-05-05T07:45:54.259Z,87.90
2023-05-05T07:58:35.482Z,86.60
2023-05-05T08:01:30.810Z,88.00
2023-05-05T08:04:15.436Z,82.30
2023-05-05T08:06:56.303Z,83.10
2023-05-05T08:09:43.612Z,81.30
2023-05-05T08:12:22.995Z,81.40
2023-05-05T08:15:05.902Z,79.90
2023-05-05T08:17:51.833Z,79.70
2023-05-05T08:20:45.450Z,80.20
2023-05-05T08:23:24.535Z,80.10
2023-05-05T08:26:16.944Z,77.80
2023-05-05T08:32:56.642Z,77.30
2023-05-05T08:35:31.191Z,75.60
2023-05-05T08:38:13.100Z,74.50
2023-05-05T08:41:13.602Z,74.50
2023-05-05T08:44:02.383Z,74.80
2023-05-05T08:46:43.168Z,75.30
2023-05-05T08:49:31.853Z,73.70
2023-05-05T08:52:16.168Z,72.10
2023-05-05T08:54:59.164Z,73.20
2023-05-05T08:57:46.324Z,73.30
2023-05-05T09:00:36.848Z,71.60
2023-05-05T09:03:19.734Z,73.80
2023-05-05T09:05:52.975Z,73.10
2023-05-05T09:08:38.881Z,73.40
2023-05-05T09:11:14.473Z,73.40
2023-05-05T09:13:47.730Z,72.80
2023-05-05T09:16:23.830Z,70.10
2023-05-05T09:19:03.836Z,71.80
2023-05-05T09:21:38.517Z,71.60
2023-05-05T09:24:16.971Z,71.10
2023-05-05T09:26:50.277Z,71.70
2023-05-05T09:29:29.262Z,71.20
2023-05-05T09:32:08.810Z,69.80
2023-05-05T09:34:49.433Z,69.30
2023-05-05T09:37:41.923Z,69.90
2023-05-05T09:40:16.060Z,68.40
2023-05-05T09:43:02.024Z,67.50
2023-05-05T09:45:34.215Z,68.90
2023-05-05T09:48:09.213Z,68.10
2023-05-05T09:50:45.155Z,68.70
2023-05-05T09:53:17.523Z,67.40
2023-05-05T09:55:59.573Z,65.60
2023-05-05T09:58:32.080Z,67.20
2023-05-05T10:01:04.491Z,65.80
2023-05-05T10:03:52.371Z,65.90
2023-05-05T10:06:41.869Z,65.80
2023-05-05T10:09:15.178Z,65.80
2023-05-05T10:12:16.631Z,65.30
2023-05-05T10:14:56.065Z,65.20
2023-05-05T10:17:34.007Z,65.00
2023-05-05T10:20:21.291Z,65.70
2023-05-05T10:23:11.137Z,65.00
2023-05-05T10:25:58.150Z,64.60
2023-05-05T10:28:56.499Z,64.40
2023-05-05T10:31:52.816Z,62.30
2023-05-05T10:34:35.900Z,61.60
2023-05-05T10:37:08.597Z,61.40
2023-05-05T10:39:41.018Z,62.70
2023-05-05T10:42:15.252Z,61.70
2023-05-05T10:44:49.300Z,62.10
2023-05-05T10:47:22.589Z,62.70
2023-05-05T10:50:01.766Z,63.50
2023-05-05T10:52:37.649Z,62.90
2023-05-05T10:55:22.781Z,60.30
2023-05-05T11:00:37.051Z,59.00
2023-05-05T11:06:07.818Z,60.40
2023-05-05T11:08:42.612Z,57.50
2023-05-05T11:11:14.809Z,58.40
2023-05-05T11:13:47.506Z,57.40
2023-05-05T11:16:56.151Z,57.70
2023-05-05T11:19:43.638Z,58.60
2023-05-05T11:22:24.223Z,59.10
2023-05-05T11:24:56.635Z,59.80
2023-05-05T11:28:05.472Z,57.50
2023-05-05T11:30:59.195Z,57.00
2023-05-05T11:33:33.294Z,55.90
2023-05-05T11:36:10.272Z,55.60
2023-05-05T11:38:48.082Z,55.70
2023-05-05T11:41:35.162Z,55.70
2023-05-05T11:44:20.892Z,55.60
2023-05-05T11:46:53.159Z,55.50
2023-05-05T11:49:29.952Z,56.20
2023-05-05T11:52:06.185Z,56.40
2023-05-05T11:54:50.584Z,55.90
2023-05-05T11:57:28.537Z,56.90
2023-05-05T12:00:02.465Z,55.20
2023-05-05T12:02:39.057Z,55.00
2023-05-05T12:05:11.412Z,55.50
2023-05-05T12:07:43.556Z,54.30
2023-05-05T12:10:23.220Z,54.90
2023-05-05T12:12:56.639Z,56.50
2023-05-05T12:15:51.769Z,58.00
2023-05-05T12:18:37.450Z,57.20
2023-05-05T12:21:48.242Z,57.40
2023-05-05T12:24:39.025Z,58.30
2023-05-05T12:28:20.735Z,57.80
2023-05-05T12:31:02.086Z,59.00
2023-05-05T12:33:45.928Z,57.40
2023-05-05T12:36:46.972Z,58.10
2023-05-05T12:43:29.401Z,58.10
2023-05-05T12:46:35.936Z,59.00
2023-05-05T12:49:50.687Z,57.80
2023-05-05T12:53:48.954Z,58.50
2023-05-05T12:55:59.320Z,58.90
2023-05-05T12:59:00.770Z,59.10
2023-05-05T13:01:44.305Z,59.00
2023-05-05T13:04:41.042Z,58.40
2023-05-05T13:07:25.450Z,58.00
2023-05-05T13:13:09.189Z,56.40
2023-05-05T13:16:05.027Z,56.10
2023-05-05T13:19:01.406Z,55.40
2023-05-05T13:21:37.271Z,55.20
2023-05-05T13:24:50.868Z,56.30
2023-05-05T13:30:26.312Z,54.50
2023-05-05T13:33:05.511Z,53.80
2023-05-05T13:35:45.065Z,53.90
2023-05-05T13:38:24.579Z,54.70
2023-05-05T13:41:05.160Z,56.00
2023-05-05T13:43:51.665Z,55.90
2023-05-05T13:46:31.611Z,53.40
2023-05-05T13:49:09.957Z,54.20
2023-05-05T13:52:07.084Z,53.60
2023-05-05T13:55:02.547Z,56.10
2023-05-05T13:57:52.405Z,55.10
2023-05-05T14:01:07.187Z,55.60
2023-05-05T14:03:54.406Z,54.80
2023-05-05T14:06:38.696Z,53.30
2023-05-05T14:09:16.878Z,52.40
2023-05-05T14:12:10.636Z,52.90
2023-05-05T14:14:55.176Z,51.50
2023-05-05T14:17:35.142Z,52.00
2023-05-05T14:20:11.414Z,52.50
2023-05-05T14:22:54.194Z,53.90
2023-05-05T14:25:32.472Z,54.00
2023-05-05T14:28:15.221Z,55.10
2023-05-05T14:31:10.018Z,53.70
2023-05-05T14:33:47.831Z,53.40
2023-05-05T14:36:35.088Z,53.50
2023-05-05T14:39:16.337Z,53.60
2023-05-05T14:42:15.574Z,54.80
2023-05-05T14:45:11.279Z,55.10
2023-05-05T14:47:43.675Z,56.40
2023-05-05T14:50:29.475Z,54.60
2023-05-05T14:53:02.119Z,55.60
2023-05-05T14:55:54.323Z,56.20
2023-05-05T14:58:26.901Z,57.10
2023-05-05T15:01:10.085Z,56.50
2023-05-05T15:04:04.967Z,57.20
2023-05-05T15:06:53.665Z,57.70
2023-05-05T15:12:22.872Z,57.20
2023-05-05T15:15:04.845Z,58.70
2023-05-05T15:17:47.799Z,58.40
2023-05-05T15:20:27.746Z,58.70
2023-05-05T15:23:23.961Z,58.70
2023-05-05T15:26:04.936Z,59.20
2023-05-05T15:28:50.295Z,59.80
2023-05-05T15:31:25.588Z,59.70
2023-05-05T15:34:11.989Z,58.50
2023-05-05T15:36:50.026Z,58.40
2023-05-05T15:39:39.684Z,58.90
2023-05-05T15:42:24.604Z,59.30
2023-05-05T15:45:08.153Z,59.70
2023-05-05T15:47:50.578Z,60.70
2023-05-05T15:50:37.539Z,61.50
2023-05-05T15:53:09.836Z,61.10
2023-05-05T15:55:41.979Z,60.70
2023-05-05T15:58:37.055Z,60.10
2023-05-05T16:01:18.106Z,60.50
2023-05-05T16:06:59.868Z,58.70
2023-05-05T16:09:51.627Z,58.00
2023-05-05T16:12:24.267Z,58.40
2023-05-05T16:15:06.608Z,59.00
2023-05-05T16:17:48.791Z,59.30
2023-05-05T16:20:23.569Z,59.20
2023-05-05T16:23:00.330Z,60.10
2023-05-05T16:25:44.997Z,60.90
2023-05-05T16:28:27.142Z,60.20
2023-05-05T16:31:31.742Z,60.60
2023-05-05T16:34:11.707Z,59.30
2023-05-05T16:36:59.789Z,59.90
2023-05-05T16:39:44.183Z,60.60
2023-05-05T16:42:54.221Z,60.40
2023-05-05T16:45:37.865Z,60.60
2023-05-05T16:48:36.447Z,61.10
2023-05-05T16:51:15.889Z,60.80
2023-05-05T16:54:24.893Z,60.80
2023-05-05T16:57:07.696Z,60.40
2023-05-05T17:00:22.771Z,61.30
2023-05-05T17:03:11.097Z,62.20
2023-05-05T17:06:18.672Z,63.20
2023-05-05T17:08:55.744Z,63.00
2023-05-05T17:11:45.748Z,63.40
2023-05-05T17:14:39.081Z,63.40
2023-05-05T17:17:33.476Z,63.60
2023-05-05T17:20:32.454Z,64.40
2023-05-05T17:23:12.972Z,64.60
2023-05-05T17:26:06.887Z,65.00
2023-05-05T17:28:52.138Z,65.40
2023-05-05T17:31:40.849Z,65.90
2023-05-05T17:34:23.295Z,65.80
2023-05-05T17:37:14.501Z,66.40
2023-05-05T17:39:54.686Z,66.20
2023-05-05T17:42:41.068Z,67.60
2023-05-05T17:45:19.472Z,68.40
2023-05-05T17:52:22.781Z,68.90
2023-05-05T17:59:49.050Z,70.00
2023-05-05T18:03:41.138Z,70.40
2023-05-05T18:07:00.868Z,71.40
2023-05-05T18:09:51.291Z,71.20
2023-05-05T18:15:55.388Z,72.20
2023-05-05T18:18:43.280Z,73.10
2023-05-05T18:25:46.045Z,75.50
2023-05-05T18:31:51.766Z,77.00
2023-05-05T18:38:21.306Z,77.90
2023-05-05T18:41:00.141Z,79.40
2023-05-05T18:44:37.024Z,80.40
2023-05-05T18:49:10.618Z,80.80
2023-05-05T18:52:12.096Z,80.00
2023-05-05T18:56:16.788Z,79.70
2023-05-05T19:00:53.321Z,80.80
2023-05-05T19:07:27.635Z,75.10
2023-05-05T19:10:19.799Z,74.00
2023-05-05T19:13:00.741Z,86.10
2023-05-05T19:15:36.489Z,94.10
2023-05-05T19:18:18.468Z,96.50
2023-05-05T19:20:51.242Z,99.90
2023-05-05T19:23:23.358Z,99.90
2023-05-05T19:25:55.521Z,99.90
2023-05-05T19:28:27.778Z,99.90
2023-05-05T19:31:00.209Z,99.90
2023-05-05T19:33:32.307Z,99.90
2023-05-05T19:36:04.797Z,99.90
2023-05-05T19:38:54.642Z,99.90
2023-05-05T19:41:36.293Z,99.90
2023-05-05T19:44:08.884Z,99.90
2023-05-05T19:46:44.474Z,99.90
2023-05-05T19:49:16.656Z,99.90
2023-05-05T19:51:50.456Z,99.90
2023-05-05T19:54:24.834Z,99.90
2023-05-05T19:56:57.543Z,99.90
2023-05-05T19:59:29.857Z,99.90
2023-05-05T20:02:02.161Z,99.90
2023-05-05T20:04:34.338Z,99.90
2023-05-05T20:07:06.422Z,99.90
2023-05-05T20:09:38.574Z,99.90
2023-05-05T20:12:12.372Z,99.90
2023-05-05T20:19:19.440Z,99.90
2023-05-05T20:21:52.561Z,99.90
2023-05-05T20:24:26.424Z,99.90
2023-05-05T20:26:58.643Z,99.90
2023-05-05T20:29:30.869Z,99.90
2023-05-05T20:32:04.791Z,99.90
2023-05-05T20:34:39.019Z,99.90
2023-05-05T20:37:12.450Z,99.90
2023-05-05T20:39:47.468Z,99.90
2023-05-05T20:42:20.163Z,99.90
2023-05-05T20:44:52.478Z,99.90
2023-05-05T20:47:25.126Z,99.90
2023-05-05T20:49:57.674Z,99.90
2023-05-05T20:52:29.844Z,99.90
2023-05-05T20:55:02.161Z,99.90
2023-05-05T20:57:34.465Z,99.90
2023-05-05T21:00:07.641Z,99.90
2023-05-05T21:02:48.065Z,99.90
2023-05-05T21:05:20.472Z,99.90
2023-05-05T21:07:54.641Z,99.90
2023-05-05T21:10:27.063Z,99.90
2023-05-05T21:13:00.407Z,99.90
2023-05-05T21:15:33.299Z,99.90
2023-05-05T21:18:07.738Z,99.90
2023-05-05T21:20:40.208Z,99.90
2023-05-05T21:23:12.743Z,99.90
2023-05-05T21:25:45.089Z,99.90
2023-05-05T21:28:18.016Z,99.90
2023-05-05T21:33:28.627Z,99.90
2023-05-05T21:36:01.005Z,99.90
2023-05-05T21:38:33.581Z,99.90
2023-05-05T21:41:06.150Z,99.90
2023-05-05T21:43:38.747Z,99.90
2023-05-05T21:46:11.168Z,99.90
2023-05-05T21:48:46.973Z,99.90
2023-05-05T21:51:20.398Z,99.90
2023-05-05T21:53:52.584Z,99.90
2023-05-05T21:56:25.916Z,99.90
2023-05-05T21:58:58.126Z,99.90
2023-05-05T22:01:30.326Z,99.90
2023-05-05T22:04:02.825Z,99.90
2023-05-05T22:06:35.796Z,99.90
2023-05-05T22:09:08.585Z,99.90
2023-05-05T22:11:41.203Z,99.90
2023-05-05T22:14:13.313Z,99.90
2023-05-05T22:16:45.589Z,99.90
2023-05-05T22:19:18.093Z,99.90
2023-05-05T22:21:50.438Z,99.90
2023-05-05T22:24:23.242Z,99.90
2023-05-05T22:26:57.451Z,99.90
2023-05-05T22:29:30.131Z,99.90
2023-05-05T22:32:02.286Z,99.90
2023-05-05T22:34:35.887Z,99.90
2023-05-05T22:37:09.527Z,99.90
2023-05-05T22:39:41.913Z,99.90
2023-05-05T22:42:14.042Z,99.90
2023-05-05T22:44:46.734Z,99.90
2023-05-05T22:47:19.432Z,99.90
2023-05-05T22:49:51.663Z,99.90
2023-05-05T22:52:26.136Z,99.90
2023-05-05T22:54:58.369Z,99.90
2023-05-05T22:57:30.819Z,99.90
2023-05-05T23:00:05.359Z,99.90
2023-05-05T23:02:38.574Z,99.90
2023-05-05T23:05:11.480Z,99.90
2023-05-05T23:07:44.017Z,99.90
2023-05-05T23:10:16.805Z,99.90
2023-05-05T23:12:49.045Z,99.90
2023-05-05T23:15:21.853Z,99.90
2023-05-05T23:17:54.146Z,99.90
2023-05-05T23:20:26.478Z,99.90
2023-05-05T23:22:59.217Z,99.90
2023-05-05T23:25:31.414Z,99.90
2023-05-05T23:28:04.131Z,99.90
2023-05-05T23:30:36.439Z,99.90
2023-05-05T23:33:08.744Z,99.90
2023-05-05T23:35:43.525Z,99.90
2023-05-05T23:38:16.342Z,99.90
2023-05-05T23:40:48.483Z,99.90
2023-05-05T23:43:20.605Z,99.90
2023-05-05T23:45:53.285Z,99.90
2023-05-05T23:48:25.916Z,99.90
2023-05-05T23:50:58.914Z,99.90
2023-05-05T23:53:31.311Z,99.90
2023-05-05T23:56:03.493Z,99.90
2023-05-05T23:58:36.174Z,99.90
